Time;durP1;ratioP1;P1;durP2;ratioP2;P2;SDS_P1;SDS_P2;PMS_P1;PMS_P2;Temp;Humidity;BMP_temperature;BMP_pressure;BME280_temperature;BME280_humidity;BME280_pressure;Samples;Min_cycle;Max_cycle;Signal;HPM_P1;HPM_P2
2023/09/09 00:01:06;;;;;;;14.98;13.38;;;;;;;20.24;61.80;100603.88;5012384;28;97855;-81
2023/09/09 00:03:32;;;;;;;15.63;12.07;;;;;;;20.25;61.72;100602.94;5012820;28;97264;-81
2023/09/09 00:05:58;;;;;;;15.73;11.90;;;;;;;20.17;61.76;100591.94;5011679;28;99154;-81
2023/09/09 00:08:24;;;;;;;19.77;13.20;;;;;;;20.11;61.71;100591.41;5010971;28;98489;-81
2023/09/09 00:10:49;;;;;;;16.42;11.27;;;;;;;20.20;61.70;100603.25;5012721;28;97304;-81
2023/09/09 00:13:15;;;;;;;17.08;11.65;;;;;;;20.15;61.88;100594.72;5012881;28;97169;-81
2023/09/09 00:15:41;;;;;;;16.48;11.82;;;;;;;20.12;61.92;100598.44;5011971;28;99113;-81
2023/09/09 00:18:06;;;;;;;18.42;12.25;;;;;;;20.06;62.06;100590.88;5012056;28;98483;-81
2023/09/09 00:20:36;;;;;;;15.63;11.52;;;;;;;20.08;61.96;100596.13;4999264;28;97678;-81
2023/09/09 00:23:09;;;;;;;20.65;11.13;;;;;;;20.04;62.18;100589.28;5012018;28;97266;-81
2023/09/09 00:25:38;;;;;;;22.65;12.30;;;;;;;20.02;62.56;100588.53;4999949;28;98744;-81
2023/09/09 00:28:04;;;;;;;16.42;11.95;;;;;;;19.82;62.61;100576.59;5011815;28;98623;-81
2023/09/09 00:30:30;;;;;;;16.92;12.73;;;;;;;19.83;62.88;100578.28;5010999;28;96785;-81
2023/09/09 00:32:56;;;;;;;19.38;12.25;;;;;;;19.89;62.76;100592.03;5012570;28;96805;-81
2023/09/09 00:35:22;;;;;;;15.32;13.10;;;;;;;19.80;63.19;100587.34;5011702;28;99027;-81
2023/09/09 00:37:48;;;;;;;18.77;13.57;;;;;;;19.76;63.20;100583.19;5011961;28;98335;-81
2023/09/09 00:40:13;;;;;;;23.08;13.10;;;;;;;19.72;63.20;100572.84;5012365;28;96693;-81
2023/09/09 00:42:39;;;;;;;16.95;13.32;;;;;;;19.64;63.64;100584.84;5011226;28;96936;-81
2023/09/09 00:45:05;;;;;;;17.27;14.02;;;;;;;19.64;63.61;100586.66;5010346;28;101068;-81
2023/09/09 00:47:31;;;;;;;17.20;15.15;;;;;;;19.58;63.63;100589.75;5012013;28;98954;-81
2023/09/09 00:49:58;;;;;;;23.70;14.80;;;;;;;19.56;63.97;100587.16;5010874;28;97375;-81
2023/09/09 00:52:24;;;;;;;18.13;15.80;;;;;;;19.39;64.34;100592.78;5010911;28;96881;-81
2023/09/09 00:54:50;;;;;;;15.88;12.20;;;;;;;19.29;64.84;100589.88;4992626;28;100370;-81
2023/09/09 00:57:16;;;;;;;15.43;12.98;;;;;;;19.49;64.19;100588.56;5010375;28;98781;-81
2023/09/09 00:59:42;;;;;;;21.15;10.73;;;;;;;19.52;63.90;100588.34;5012040;28;97262;-81
2023/09/09 01:02:07;;;;;;;19.73;10.93;;;;;;;19.54;63.84;100586.41;5011894;28;97063;-81
2023/09/09 01:04:33;;;;;;;17.27;11.10;;;;;;;19.40;64.40;100598.00;5011474;28;98946;-81
2023/09/09 01:07:00;;;;;;;17.30;11.52;;;;;;;19.38;64.38;100591.91;5010051;28;98315;-81
2023/09/09 01:09:26;;;;;;;17.48;10.88;;;;;;;19.50;64.27;100590.25;5011902;28;96928;-81
2023/09/09 01:11:53;;;;;;;16.42;11.15;;;;;;;19.52;64.14;100593.66;5012068;28;98247;-81
2023/09/09 01:14:18;;;;;;;17.50;11.40;;;;;;;19.49;64.13;100593.88;5011708;28;98900;-80
2023/09/09 01:16:44;;;;;;;16.77;11.05;;;;;;;19.45;64.12;100595.88;5012751;28;100579;-81
2023/09/09 01:19:13;;;;;;;18.65;11.95;;;;;;;19.50;64.24;100603.56;4996542;28;96783;-81
2023/09/09 01:21:39;;;;;;;19.20;11.73;;;;;;;19.46;64.07;100588.75;4995923;28;97049;-81
2023/09/09 01:24:05;;;;;;;18.15;11.50;;;;;;;19.33;64.21;100580.72;5013441;28;98032;-81
2023/09/09 01:26:31;;;;;;;18.63;11.85;;;;;;;19.45;64.32;100595.88;5014470;28;98561;-81
2023/09/09 01:28:57;;;;;;;15.18;11.40;;;;;;;19.44;64.24;100588.84;5015393;28;97010;-81
2023/09/09 01:31:22;;;;;;;16.48;13.75;;;;;;;19.43;64.35;100594.25;5014739;28;97040;-81
2023/09/09 01:33:50;;;;;;;16.58;12.52;;;;;;;19.43;64.20;100594.25;5014718;28;99000;-81
2023/09/09 01:36:16;;;;;;;16.08;10.93;;;;;;;19.45;64.07;100600.34;5009594;28;99019;-81
2023/09/09 01:38:41;;;;;;;20.75;13.68;;;;;;;19.44;64.09;100601.31;5015234;28;97305;-81
2023/09/09 01:41:07;;;;;;;15.55;13.27;;;;;;;19.41;64.02;100598.84;5013698;28;97395;-81
2023/09/09 01:43:34;;;;;;;24.73;14.40;;;;;;;19.45;63.99;100609.19;5012942;28;100443;-81
2023/09/09 01:45:59;;;;;;;16.95;14.50;;;;;;;19.44;64.06;100611.97;5009996;28;100381;-81
2023/09/09 01:48:25;;;;;;;18.80;14.63;;;;;;;19.31;64.06;100595.94;5013525;28;96953;-81
2023/09/09 01:50:51;;;;;;;20.95;14.50;;;;;;;19.29;63.72;100594.34;5013333;28;97004;-81
2023/09/09 01:53:17;;;;;;;15.25;13.60;;;;;;;19.29;64.07;100610.31;5014465;28;99236;-81
2023/09/09 01:55:42;;;;;;;15.73;11.93;;;;;;;19.26;64.04;100603.38;5014541;28;98587;-81
2023/09/09 01:58:07;;;;;;;20.45;13.55;;;;;;;19.26;64.06;100603.38;5012992;28;97424;-81
2023/09/09 02:00:33;;;;;;;16.52;13.80;;;;;;;19.15;63.94;100582.78;5013430;28;96822;-81
2023/09/09 02:02:58;;;;;;;18.33;16.10;;;;;;;19.12;64.12;100593.63;5013114;28;100171;-81
2023/09/09 02:05:24;;;;;;;21.77;11.77;;;;;;;19.12;63.96;100596.28;5014391;28;97409;-81
2023/09/09 02:07:50;;;;;;;17.73;12.88;;;;;;;19.12;64.10;100595.44;5012799;28;96794;-81
2023/09/09 02:10:15;;;;;;;17.27;11.75;;;;;;;19.13;64.03;100598.00;5012855;28;97000;-81
2023/09/09 02:12:41;;;;;;;15.85;11.13;;;;;;;19.09;63.86;100596.50;5014670;28;98700;-81
2023/09/09 02:15:09;;;;;;;17.08;11.60;;;;;;;19.06;63.74;100603.84;5012706;28;100613;-81
2023/09/09 02:17:36;;;;;;;18.05;12.50;;;;;;;18.90;63.93;100606.63;5014295;28;96679;-81
2023/09/09 02:20:02;;;;;;;26.20;11.27;;;;;;;18.92;64.15;100612.69;5014343;28;97302;-81
2023/09/09 02:22:29;;;;;;;15.85;11.13;;;;;;;18.93;64.01;100612.59;5014627;28;97771;-83
2023/09/09 02:24:58;;;;;;;14.98;11.10;;;;;;;18.89;64.02;100612.91;5014218;28;98989;-81
2023/09/09 02:27:24;;;;;;;16.25;12.65;;;;;;;18.81;63.99;100615.19;5013118;28;96810;-81
2023/09/09 02:29:50;;;;;;;19.50;16.20;;;;;;;18.80;63.76;100610.84;5013906;28;96863;-81
2023/09/09 02:32:16;;;;;;;13.35;11.95;;;;;;;18.85;63.71;100619.34;5013693;28;98999;-81
2023/09/09 02:34:42;;;;;;;15.50;13.85;;;;;;;18.83;63.75;100613.28;5012324;28;99134;-81
2023/09/09 02:37:26;;;;;;;25.15;15.10;;;;;;;18.87;63.41;100617.44;5013811;28;97976;-81
2023/09/09 02:39:52;;;;;;;16.17;12.00;;;;;;;18.83;63.65;100616.81;5011359;28;96791;-81
2023/09/09 02:42:22;;;;;;;14.63;10.63;;;;;;;18.84;63.67;100617.66;5013726;28;98575;-81
2023/09/09 02:44:51;;;;;;;12.13;9.57;;;;;;;18.78;63.57;100618.88;5020054;28;100636;-81
2023/09/09 02:47:18;;;;;;;16.23;9.60;;;;;;;18.75;63.74;100616.44;5012659;28;96878;-81
2023/09/09 02:49:43;;;;;;;16.73;9.52;;;;;;;18.65;63.68;100605.50;5012725;28;97269;-81
2023/09/09 02:52:09;;;;;;;18.25;10.18;;;;;;;18.65;64.04;100618.78;5013752;28;99541;-81
2023/09/09 02:54:36;;;;;;;14.50;10.20;;;;;;;18.66;63.85;100614.31;5013512;28;97215;-81
2023/09/09 02:57:03;;;;;;;14.10;9.45;;;;;;;18.64;63.81;100618.88;5013863;28;97200;-81
2023/09/09 02:59:31;;;;;;;13.90;10.35;;;;;;;18.59;64.13;100610.31;4995834;28;96935;-81
2023/09/09 03:01:57;;;;;;;18.25;10.10;;;;;;;18.53;64.07;100619.56;4992477;28;101061;-81
2023/09/09 03:04:22;;;;;;;13.63;9.90;;;;;;;18.57;63.90;100620.22;5013497;28;97330;-81
2023/09/09 03:06:48;;;;;;;13.00;9.98;;;;;;;18.39;64.16;100600.97;5011778;28;96961;-81
2023/09/09 03:09:14;;;;;;;16.13;10.15;;;;;;;18.49;64.11;100618.88;5013894;28;96844;-82
2023/09/09 03:11:40;;;;;;;20.30;11.07;;;;;;;18.39;64.46;100607.13;5013056;28;98565;-81
2023/09/09 03:14:05;;;;;;;13.68;10.27;;;;;;;18.44;64.61;100612.13;5014180;28;97709;-81
2023/09/09 03:16:31;;;;;;;16.48;9.95;;;;;;;18.36;64.28;100609.97;5011637;28;97293;-81
2023/09/09 03:18:57;;;;;;;17.50;10.65;;;;;;;18.30;64.19;100597.06;5012342;28;97024;-81
2023/09/09 03:21:23;;;;;;;16.50;10.93;;;;;;;18.41;64.18;100620.31;5012251;28;98667;-81
2023/09/09 03:23:48;;;;;;;13.35;10.57;;;;;;;18.42;64.30;100628.19;5011301;28;99285;-81
2023/09/09 03:26:18;;;;;;;14.70;9.88;;;;;;;18.41;64.30;100617.66;5013140;28;96716;-81
2023/09/09 03:28:47;;;;;;;14.48;9.88;;;;;;;18.36;64.36;100614.44;5013661;28;96911;-81
2023/09/09 03:31:12;;;;;;;15.05;10.25;;;;;;;18.38;64.39;100624.00;5010345;28;97970;-81
2023/09/09 03:33:39;;;;;;;10.68;8.80;;;;;;;18.35;64.60;100621.53;5011796;28;100580;-81
2023/09/09 03:36:05;;;;;;;18.27;11.32;;;;;;;18.36;64.50;100627.72;5013063;28;96691;-81
2023/09/09 03:38:30;;;;;;;16.45;9.93;;;;;;;18.37;64.24;100618.81;5013070;28;96838;-81
2023/09/09 03:40:56;;;;;;;13.75;10.35;;;;;;;18.28;64.33;100621.06;5012522;28;98797;-81
2023/09/09 03:43:21;;;;;;;16.17;10.73;;;;;;;18.29;64.56;100625.44;5011487;28;98491;-81
2023/09/09 03:45:53;;;;;;;18.50;11.15;;;;;;;18.27;64.60;100629.16;5010933;28;96962;-81
2023/09/09 03:48:18;;;;;;;14.27;11.18;;;;;;;18.29;64.61;100628.09;5013435;28;96741;-81
2023/09/09 03:50:44;;;;;;;13.50;10.00;;;;;;;18.27;64.34;100637.13;5010951;28;100372;-81
2023/09/09 03:53:09;;;;;;;17.85;10.25;;;;;;;18.17;64.64;100622.69;5012569;28;98545;-81
2023/09/09 03:55:35;;;;;;;13.93;10.15;;;;;;;18.21;64.89;100629.50;5011574;28;97835;-81
2023/09/09 03:58:00;;;;;;;13.88;10.57;;;;;;;18.17;64.74;100631.50;5011272;28;97302;-81
2023/09/09 04:00:26;;;;;;;13.02;10.52;;;;;;;18.13;65.21;100637.09;5010947;28;98851;-81
2023/09/09 04:02:52;;;;;;;21.23;13.48;;;;;;;18.05;65.30;100635.75;5004855;28;98638;-81
2023/09/09 04:05:18;;;;;;;15.63;13.73;;;;;;;18.01;65.19;100630.72;5011258;28;98506;-81
2023/09/09 04:07:44;;;;;;;14.82;12.55;;;;;;;17.95;65.55;100631.94;5012527;28;96884;-82
2023/09/09 04:10:13;;;;;;;20.25;16.88;;;;;;;17.97;65.72;100638.00;5010459;28;100622;-81
2023/09/09 04:12:39;;;;;;;14.40;11.80;;;;;;;17.97;65.57;100632.69;5012756;28;98706;-81
2023/09/09 04:15:08;;;;;;;14.27;9.93;;;;;;;17.95;65.36;100629.28;5012261;28;96876;-81
2023/09/09 04:17:34;;;;;;;14.07;10.20;;;;;;;17.96;65.33;100625.69;5011140;28;96837;-81
2023/09/09 04:20:01;;;;;;;17.05;10.65;;;;;;;17.93;65.58;100638.28;5011985;28;98983;-81
2023/09/09 04:22:26;;;;;;;20.98;10.77;;;;;;;17.92;65.62;100617.97;5011151;28;100147;-81
2023/09/09 04:24:55;;;;;;;17.42;11.98;;;;;;;17.79;66.27;100612.56;5010257;28;96919;-81
2023/09/09 04:27:22;;;;;;;15.93;11.13;;;;;;;17.88;65.91;100619.97;5011256;28;97191;-81
2023/09/09 04:29:48;;;;;;;15.48;11.05;;;;;;;17.99;65.58;100629.97;5010503;28;100748;-81
2023/09/09 04:32:13;;;;;;;18.48;12.02;;;;;;;18.01;65.58;100631.59;5002410;28;98702;-81
2023/09/09 04:34:39;;;;;;;17.10;11.23;;;;;;;17.96;65.51;100633.66;5010415;28;96874;-80
2023/09/09 04:37:05;;;;;;;18.70;11.32;;;;;;;17.87;66.06;100632.41;5011953;28;96886;-81
2023/09/09 04:39:31;;;;;;;16.05;11.88;;;;;;;17.95;65.55;100644.34;5011848;28;98799;-82
2023/09/09 04:41:56;;;;;;;15.18;12.40;;;;;;;17.91;65.92;100643.69;5011905;28;98301;-81
2023/09/09 04:44:22;;;;;;;17.25;11.98;;;;;;;17.84;65.97;100629.94;5011069;28;96981;-81
2023/09/09 04:46:48;;;;;;;16.92;11.27;;;;;;;17.87;66.14;100640.38;5011915;28;97237;-81
2023/09/09 04:49:15;;;;;;;14.50;11.85;;;;;;;17.81;66.03;100626.59;5011403;28;98733;-81
2023/09/09 04:51:41;;;;;;;18.05;13.07;;;;;;;17.75;66.40;100640.22;4993622;28;100089;-81
2023/09/09 04:54:06;;;;;;;17.52;11.45;;;;;;;17.80;66.56;100623.09;5011657;28;96718;-81
2023/09/09 04:56:32;;;;;;;19.55;12.30;;;;;;;17.76;66.20;100633.94;5010321;28;96867;-82
2023/09/09 04:58:58;;;;;;;13.85;10.60;;;;;;;17.89;66.18;100640.28;5011404;28;98647;-81
2023/09/09 05:01:23;;;;;;;14.85;11.35;;;;;;;18.01;66.03;100638.69;5006136;28;98502;-81
2023/09/09 05:03:49;;;;;;;16.75;11.30;;;;;;;17.98;65.30;100644.19;5011928;28;96982;-81
2023/09/09 05:06:14;;;;;;;15.55;11.82;;;;;;;18.21;65.25;100646.31;5009975;28;96964;-81
2023/09/09 05:08:40;;;;;;;18.45;12.05;;;;;;;18.33;64.19;100621.66;5010185;28;101145;-81
2023/09/09 05:11:05;;;;;;;15.50;11.45;;;;;;;18.67;63.92;100642.59;5011158;28;98534;-81
2023/09/09 05:13:33;;;;;;;25.55;21.70;;;;;;;18.77;63.50;100649.94;5006599;28;98008;-80
2023/09/09 05:15:59;;;;;;;12.88;10.93;;;;;;;18.89;63.20;100635.03;4994199;28;96906;-81
2023/09/09 05:18:24;;;;;;;18.95;10.95;;;;;;;19.15;62.75;100648.47;5011428;28;98006;-82
2023/09/09 05:20:50;;;;;;;15.27;11.57;;;;;;;19.24;62.15;100642.53;5009732;28;100373;-81
2023/09/09 05:23:18;;;;;;;22.38;13.18;;;;;;;19.33;62.00;100647.25;5011547;28;96775;-82
2023/09/09 05:25:45;;;;;;;16.35;11.88;;;;;;;19.48;61.73;100640.06;4994231;28;96756;-82
2023/09/09 05:28:11;;;;;;;16.10;11.48;;;;;;;19.77;61.04;100653.28;4989541;28;98151;-82
2023/09/09 05:30:40;;;;;;;17.23;15.43;;;;;;;19.94;60.26;100654.81;4990337;28;98789;-82
2023/09/09 05:33:06;;;;;;;17.75;11.02;;;;;;;20.04;59.83;100650.56;4989614;28;96957;-82
2023/09/09 05:35:32;;;;;;;19.33;11.65;;;;;;;20.15;59.54;100653.34;4990595;28;96947;-82
2023/09/09 05:37:58;;;;;;;15.07;10.25;;;;;;;20.33;59.16;100645.88;4988636;28;100684;-82
2023/09/09 05:40:23;;;;;;;16.63;9.85;;;;;;;20.45;58.79;100647.72;4990734;28;98230;-82
2023/09/09 05:42:49;;;;;;;14.98;11.10;;;;;;;20.43;58.57;100624.78;4989179;28;96974;-82
2023/09/09 05:45:15;;;;;;;18.77;13.13;;;;;;;20.78;58.07;100640.97;4989611;28;96975;-82
2023/09/09 05:47:42;;;;;;;21.00;12.38;;;;;;;21.15;57.07;100652.50;4987619;28;100671;-82
2023/09/09 05:50:08;;;;;;;18.25;10.65;;;;;;;21.30;56.82;100647.84;4979878;28;100002;-83
2023/09/09 05:52:34;;;;;;;30.73;28.30;;;;;;;21.80;55.83;100653.09;4985786;28;96987;-82
2023/09/09 05:54:59;;;;;;;15.38;10.48;;;;;;;22.02;55.20;100652.28;4988853;28;97541;-82
2023/09/09 05:57:25;;;;;;;14.45;11.30;;;;;;;22.11;55.26;100648.94;4990236;28;98737;-82
2023/09/09 05:59:51;;;;;;;14.80;10.00;;;;;;;22.23;55.04;100645.31;4988713;28;100200;-83
2023/09/09 06:02:18;;;;;;;14.32;10.32;;;;;;;22.60;54.22;100651.31;4991990;28;97184;-83
2023/09/09 06:04:44;;;;;;;16.10;10.95;;;;;;;22.58;54.34;100652.41;4994308;28;96851;-84
2023/09/09 06:07:09;;;;;;;13.73;10.88;;;;;;;23.00;53.55;100645.44;4991993;28;100437;-83
2023/09/09 06:09:35;;;;;;;18.63;10.80;;;;;;;23.49;52.36;100644.09;4993542;28;98770;-83
2023/09/09 06:12:01;;;;;;;20.73;13.05;;;;;;;24.09;51.29;100655.19;4993386;28;98760;-83
2023/09/09 06:14:27;;;;;;;15.98;10.52;;;;;;;24.63;50.23;100643.34;4992792;28;98809;-83
2023/09/09 06:16:53;;;;;;;12.93;9.38;;;;;;;25.37;48.83;100654.75;4990716;28;98672;-83
2023/09/09 06:19:19;;;;;;;12.18;9.82;;;;;;;25.98;47.20;100651.81;4994373;28;98246;-83
2023/09/09 06:21:44;;;;;;;13.98;9.45;;;;;;;26.80;45.71;100651.13;4993382;28;96719;-83
2023/09/09 06:24:12;;;;;;;12.00;7.88;;;;;;;28.82;41.99;100645.09;4999299;28;96924;-83
2023/09/09 06:26:38;;;;;;;21.75;8.32;;;;;;;29.81;39.92;100651.59;4982111;28;100577;-83
2023/09/09 06:29:04;;;;;;;9.57;8.57;;;;;;;30.82;38.14;100651.09;5013416;28;100770;-83
2023/09/09 06:31:30;;;;;;;12.82;9.50;;;;;;;31.46;36.61;100643.63;5012031;28;97425;-83
2023/09/09 06:33:56;;;;;;;13.45;8.95;;;;;;;33.16;34.22;100653.97;4998072;28;96837;-83
2023/09/09 06:36:22;;;;;;;11.30;10.02;;;;;;;34.74;32.00;100652.81;5007975;28;100166;-83
2023/09/09 06:38:49;;;;;;;15.20;8.88;;;;;;;35.79;30.37;100641.38;5010917;28;100167;-84
2023/09/09 06:41:15;;;;;;;10.88;7.82;;;;;;;36.77;29.28;100647.94;5013725;28;96646;-84
2023/09/09 06:43:42;;;;;;;9.40;8.45;;;;;;;37.97;27.61;100651.69;5012953;28;96787;-84
2023/09/09 06:46:08;;;;;;;12.63;8.25;;;;;;;38.44;26.92;100659.47;5012612;28;98663;-84
2023/09/09 06:48:34;;;;;;;9.77;7.13;;;;;;;39.96;25.59;100661.19;5013405;28;98593;-84
2023/09/09 06:50:59;;;;;;;10.15;9.23;;;;;;;40.57;24.37;100661.78;5013551;28;97408;-83
2023/09/09 06:53:25;;;;;;;16.05;14.63;;;;;;;40.93;23.80;100669.72;5009212;28;97557;-84
2023/09/09 06:55:51;;;;;;;22.85;20.67;;;;;;;42.05;23.04;100665.41;5015615;28;98963;-83
2023/09/09 06:58:17;;;;;;;21.98;19.85;;;;;;;42.00;23.37;100659.00;5007215;28;98772;-83
2023/09/09 07:00:43;;;;;;;10.25;9.25;;;;;;;42.99;21.94;100658.13;5015092;28;96853;-84
2023/09/09 07:03:08;;;;;;;35.92;31.77;;;;;;;43.93;21.03;100661.50;5010313;28;97007;-84
2023/09/09 07:05:34;;;;;;;11.40;7.50;;;;;;;44.33;21.01;100660.97;5018125;28;98509;-83
2023/09/09 07:08:00;;;;;;;11.43;7.68;;;;;;;44.76;20.51;100655.41;5020439;27;98796;-83
2023/09/09 07:10:26;;;;;;;10.80;9.75;;;;;;;45.56;19.70;100650.34;5009928;28;96774;-83
2023/09/09 07:12:52;;;;;;;10.18;8.25;;;;;;;46.10;19.41;100660.00;5011648;28;96807;-83
2023/09/09 07:15:18;;;;;;;11.45;8.52;;;;;;;45.70;19.41;100654.19;5007964;28;98797;-83
2023/09/09 07:17:46;;;;;;;10.95;9.23;;;;;;;46.82;18.69;100669.78;5017743;28;98695;-83
2023/09/09 07:20:12;;;;;;;15.30;13.98;;;;;;;47.52;18.35;100668.81;5022793;28;97388;-83
2023/09/09 07:22:38;;;;;;;25.23;23.45;;;;;;;48.26;17.58;100658.38;5017083;28;97369;-83
2023/09/09 07:25:04;;;;;;;8.15;7.03;;;;;;;48.86;17.02;100644.00;5017447;28;97647;-83
2023/09/09 07:27:30;;;;;;;31.45;29.38;;;;;;;49.47;16.79;100654.22;5009002;27;98842;-82
2023/09/09 07:29:55;;;;;;;14.43;11.93;;;;;;;49.72;16.31;100643.75;5011372;28;96785;-83
2023/09/09 07:32:21;;;;;;;12.70;11.45;;;;;;;50.12;16.27;100652.50;5012427;28;97552;-83
2023/09/09 07:34:46;;;;;;;8.77;7.60;;;;;;;50.70;15.52;100651.91;5015856;28;98789;-84
2023/09/09 07:37:12;;;;;;;10.65;7.93;;;;;;;51.39;15.05;100660.91;5010843;28;98586;-84
2023/09/09 07:39:45;;;;;;;9.02;8.15;;;;;;;51.46;14.56;100651.25;5016031;28;96815;-84
2023/09/09 07:42:11;;;;;;;9.75;8.70;;;;;;;51.81;14.55;100663.50;5014439;28;97260;-83
2023/09/09 07:44:36;;;;;;;8.50;7.75;;;;;;;49.65;15.94;100658.09;5012162;28;98226;-84
2023/09/09 07:47:06;;;;;;;10.98;7.45;;;;;;;51.25;14.95;100662.09;5012475;28;98684;-84
2023/09/09 07:49:33;;;;;;;9.23;7.97;;;;;;;51.82;14.69;100651.16;5007203;28;98543;-83
2023/09/09 07:51:59;;;;;;;13.77;12.70;;;;;;;51.71;14.90;100663.78;5012411;28;96930;-83
2023/09/09 07:54:24;;;;;;;10.85;6.70;;;;;;;52.64;14.02;100657.25;5011807;28;99058;-83
2023/09/09 07:56:50;;;;;;;6.88;6.07;;;;;;;52.92;14.00;100664.22;5009956;28;97805;-82
2023/09/09 07:59:15;;;;;;;9.70;6.55;;;;;;;53.10;13.78;100665.06;5020624;28;97123;-83
2023/09/09 08:01:42;;;;;;;6.28;5.53;;;;;;;52.57;14.07;100662.50;5011191;28;96888;-83
2023/09/09 08:04:07;;;;;;;7.00;6.30;;;;;;;53.25;13.71;100660.09;5010744;28;98763;-83
2023/09/09 08:06:33;;;;;;;6.30;5.70;;;;;;;53.48;13.60;100657.97;5011907;28;98753;-84
2023/09/09 08:08:58;;;;;;;10.40;6.65;;;;;;;54.18;13.45;100661.38;5010987;28;97243;-83
2023/09/09 08:11:24;;;;;;;7.72;6.95;;;;;;;55.33;12.42;100658.25;5012171;28;97044;-83
2023/09/09 08:13:49;;;;;;;24.90;22.65;;;;;;;55.55;12.70;100662.66;5010541;28;99217;-83
2023/09/09 08:16:15;;;;;;;30.63;28.20;;;;;;;56.25;11.87;100660.69;5011151;28;98701;-84
2023/09/09 08:18:43;;;;;;;9.73;6.35;;;;;;;56.33;12.19;100661.75;5011658;28;97304;-83
2023/09/09 08:21:10;;;;;;;10.00;9.02;;;;;;;55.47;12.82;100650.34;5012306;28;96833;-83
2023/09/09 08:23:36;;;;;;;10.68;8.60;;;;;;;56.78;11.69;100649.44;5009540;28;98742;-83
2023/09/09 08:26:01;;;;;;;8.57;7.68;;;;;;;56.54;11.60;100638.25;5010278;28;97586;-82
2023/09/09 08:28:27;;;;;;;11.02;7.32;;;;;;;56.94;12.03;100638.28;5011600;28;96667;-84
2023/09/09 08:31:02;;;;;;;9.40;7.70;;;;;;;57.09;11.58;100633.84;5011045;28;97156;-83
2023/09/09 08:33:31;;;;;;;9.60;7.93;;;;;;;57.09;11.89;100634.66;5011716;28;98953;-84
2023/09/09 08:36:02;;;;;;;8.73;7.93;;;;;;;57.79;11.32;100631.38;5010571;28;98352;-83
2023/09/09 08:38:28;;;;;;;8.77;8.07;;;;;;;58.21;11.01;100636.41;5011687;28;97335;-83
2023/09/09 08:41:00;;;;;;;9.85;8.23;;;;;;;57.63;11.41;100627.69;5011752;28;96984;-84
2023/09/09 08:43:41;;;;;;;8.93;8.13;;;;;;;59.40;10.36;100634.13;5010001;28;98692;-83
2023/09/09 08:46:16;;;;;;;8.90;8.20;;;;;;;60.22;9.80;100629.88;5010466;28;98643;-82
2023/09/09 08:48:43;;;;;;;8.63;7.77;;;;;;;60.17;10.00;100627.38;5027667;28;96992;-83
2023/09/09 08:51:15;;;;;;;9.55;8.85;;;;;;;60.71;10.07;100615.94;5003133;28;97322;-84
2023/09/09 08:53:41;;;;;;;10.32;9.52;;;;;;;61.39;9.33;100611.03;5011447;28;98756;-82
2023/09/09 08:56:07;;;;;;;10.60;9.57;;;;;;;61.09;9.42;100601.41;5011439;28;98713;-82
2023/09/09 08:58:33;;;;;;;10.85;10.02;;;;;;;60.27;9.55;100614.53;5006019;28;96761;-82
2023/09/09 09:00:59;;;;;;;11.03;10.00;;;;;;;61.49;9.23;100604.66;5010695;28;96947;-83
2023/09/09 09:03:26;;;;;;;10.90;10.00;;;;;;;61.67;9.87;100596.31;5010047;28;98714;-83
2023/09/09 09:05:56;;;;;;;12.35;11.35;;;;;;;61.51;9.62;100600.22;5009977;28;97349;-84
2023/09/09 09:08:22;;;;;;;11.90;11.13;;;;;;;59.13;10.27;100600.06;5006980;28;97460;-84
2023/09/09 09:10:47;;;;;;;12.57;10.77;;;;;;;60.52;9.60;100592.25;5008096;28;96906;-84
2023/09/09 09:13:14;;;;;;;13.30;12.30;;;;;;;60.41;9.29;100599.75;5007650;28;99624;-79
2023/09/09 09:15:40;;;;;;;12.35;11.35;;;;;;;59.99;9.90;100595.09;5007364;28;98634;-79
2023/09/09 09:18:07;;;;;;;;;;;;;;;59.09;9.73;100596.38;5007327;28;97242;-78
2023/09/09 09:20:33;;;;;;;11.35;10.50;;;;;;;59.69;9.93;100595.81;5009363;28;96787;-80
2023/09/09 09:23:00;;;;;;;12.10;10.95;;;;;;;59.02;9.92;100592.56;5006084;28;99018;-83
2023/09/09 09:25:27;;;;;;;10.15;9.40;;;;;;;61.14;9.46;100591.75;5007108;28;98978;-79
2023/09/09 09:27:58;;;;;;;10.57;9.73;;;;;;;60.50;10.00;100582.50;5006307;28;97743;-80
2023/09/09 09:30:25;;;;;;;9.10;8.30;;;;;;;58.37;10.62;100582.75;5006108;28;96819;-80
2023/09/09 09:32:51;;;;;;;;;;;;;;;58.57;10.87;100589.22;4997764;28;98940;-81
2023/09/09 09:35:23;;;;;;;9.93;8.70;;;;;;;57.05;10.91;100587.81;4997944;28;98413;-79
2023/09/09 09:38:09;;;;;;;8.07;7.28;;;;;;;55.79;11.72;100585.94;5008951;28;97135;-79
2023/09/09 09:40:35;;;;;;;7.10;6.38;;;;;;;56.28;10.92;100590.75;5006809;28;96810;-79
2023/09/09 09:43:02;;;;;;;6.78;6.13;;;;;;;55.13;11.45;100590.47;5013221;28;98988;-80
2023/09/09 09:45:30;;;;;;;7.20;6.60;;;;;;;54.09;12.38;100582.00;5013389;28;98350;-81
2023/09/09 09:47:58;;;;;;;8.18;5.53;;;;;;;45.63;17.36;100590.72;5002799;28;97097;-80
2023/09/09 09:50:31;;;;;;;10.95;8.18;;;;;;;43.54;19.86;100590.78;5013761;28;97119;-80
2023/09/09 09:53:04;;;;;;;5.90;5.22;;;;;;;43.38;20.37;100586.22;5011793;28;99076;-79
2023/09/09 09:55:32;;;;;;;8.50;4.97;;;;;;;40.76;22.99;100600.03;5014001;28;98644;-81
2023/09/09 09:58:03;;;;;;;8.65;5.35;;;;;;;38.96;24.57;100590.50;5009944;28;97730;-74
2023/09/09 10:00:28;;;;;;;5.95;5.35;;;;;;;38.07;25.19;100601.00;5013166;28;96689;-73
2023/09/09 10:02:58;;;;;;;9.07;5.50;;;;;;;37.47;26.41;100594.16;5012496;28;98757;-74
2023/09/09 10:05:25;;;;;;;6.32;5.55;;;;;;;37.03;27.13;100597.78;5012348;28;98726;-74
2023/09/09 10:08:21;;;;;;;7.35;5.47;;;;;;;35.62;28.09;100598.31;5013122;28;96694;-74
2023/09/09 10:11:13;;;;;;;10.25;8.82;;;;;;;34.84;28.60;100599.56;4995670;28;97032;-71
2023/09/09 10:13:43;;;;;;;7.60;5.25;;;;;;;33.46;30.89;100603.03;5017332;27;99238;-73
2023/09/09 10:16:09;;;;;;;8.43;5.55;;;;;;;33.98;30.62;100597.19;5003736;28;98817;-74
2023/09/09 10:18:36;;;;;;;8.60;5.60;;;;;;;32.59;31.61;100585.72;5006327;28;96700;-74
2023/09/09 10:21:02;;;;;;;10.02;8.05;;;;;;;31.92;33.15;100591.22;5011556;27;97144;-74
2023/09/09 10:23:29;;;;;;;6.93;5.38;;;;;;;31.95;33.17;100594.41;5004526;28;99185;-89
2023/09/09 10:25:55;;;;;;;8.82;5.72;;;;;;;31.96;33.06;100592.53;5010113;28;98753;-88
2023/09/09 10:28:21;;;;;;;8.63;5.60;;;;;;;32.07;33.12;100593.97;5010942;28;98040;-86
2023/09/09 10:30:48;;;;;;;11.20;5.95;;;;;;;31.82;34.03;100590.59;5009434;28;97421;-74
2023/09/09 10:33:13;;;;;;;14.70;13.23;;;;;;;31.16;35.11;100585.72;5011170;28;99146;-76
2023/09/09 10:35:40;;;;;;;14.93;13.40;;;;;;;31.55;34.79;100588.28;5010063;28;98235;-73
2023/09/09 10:38:07;;;;;;;13.00;5.75;;;;;;;31.76;34.00;100587.59;5010693;28;97497;-74
2023/09/09 10:40:32;;;;;;;7.13;5.50;;;;;;;31.50;34.50;100579.03;5007665;28;98162;-76
2023/09/09 10:42:58;;;;;;;8.95;5.50;;;;;;;31.53;34.46;100576.81;5008853;28;98805;-79
2023/09/09 10:45:24;;;;;;;8.88;6.10;;;;;;;31.82;34.49;100580.59;5010736;28;97729;-75
2023/09/09 10:47:58;;;;;;;8.10;5.90;;;;;;;31.65;34.20;100576.34;5008798;28;97142;-73
2023/09/09 10:50:44;;;;;;;8.13;5.57;;;;;;;30.97;34.93;100573.44;5003526;28;98058;-73
2023/09/09 10:53:13;;;;;;;6.18;5.55;;;;;;;30.86;35.62;100573.84;4998885;28;98693;-73
2023/09/09 10:55:38;;;;;;;7.07;5.90;;;;;;;31.03;34.72;100566.47;5010040;28;98581;-75
2023/09/09 10:58:06;;;;;;;10.18;6.10;;;;;;;30.48;36.43;100579.09;5023295;28;97299;-75
2023/09/09 11:00:42;;;;;;;8.55;6.25;;;;;;;30.79;36.13;100573.72;5010753;28;97220;-75
2023/09/09 11:03:25;;;;;;;8.82;5.60;;;;;;;30.38;36.83;100586.59;5008922;28;98838;-75
2023/09/09 11:06:04;;;;;;;6.65;5.40;;;;;;;30.44;36.21;100581.31;4996562;28;98651;-75
2023/09/09 11:08:32;;;;;;;9.80;6.18;;;;;;;30.43;36.32;100578.78;5003872;28;97311;-75
2023/09/09 11:11:17;;;;;;;9.60;5.97;;;;;;;30.43;36.01;100579.63;5010331;28;98149;-76
2023/09/09 11:14:02;;;;;;;15.88;7.13;;;;;;;29.94;37.07;100590.56;5008089;28;98849;-76